Time;durP1;ratioP1;P1;durP2;ratioP2;P2;SDS_P1;SDS_P2;PMS_P1;PMS_P2;Temp;Humidity;BMP_temperature;BMP_pressure;BME280_temperature;BME280_humidity;BME280_pressure;Samples;Min_cycle;Max_cycle;Signal;HPM_P1;HPM_P2
2021/04/17 00:02:23;;;;;;;7.18;5.38;;;;;;;7.13;59.68;101203.22;5121046;27;20071;-84
2021/04/17 00:04:50;;;;;;;8.60;5.70;;;;;;;7.08;59.57;101197.22;5114010;28;20059;-83
2021/04/17 00:07:18;;;;;;;8.05;5.72;;;;;;;7.09;59.63;101201.56;5116068;27;20043;-84
2021/04/17 00:09:45;;;;;;;8.82;5.63;;;;;;;7.04;59.95;101191.13;5118148;27;20088;-84
2021/04/17 00:12:18;;;;;;;8.60;5.70;;;;;;;6.95;60.47;101178.13;5122293;28;20078;-83
2021/04/17 00:14:47;;;;;;;9.02;6.20;;;;;;;6.86;61.35;101159.88;5120129;27;20036;-83
2021/04/17 00:17:16;;;;;;;13.15;7.00;;;;;;;6.93;61.81;101187.81;5116046;28;20071;-82
2021/04/17 00:19:46;;;;;;;11.95;6.90;;;;;;;6.83;62.59;101191.53;5121846;28;20070;-84
2021/04/17 00:22:12;;;;;;;9.55;6.68;;;;;;;6.78;63.18;101188.09;5128570;27;20138;-85
2021/04/17 00:24:41;;;;;;;11.38;7.03;;;;;;;6.78;63.35;101182.84;5137335;27;20035;-85
2021/04/17 00:27:07;;;;;;;10.30;6.57;;;;;;;6.71;63.68;101175.97;5133347;27;20044;-85
2021/04/17 00:29:38;;;;;;;11.15;6.88;;;;;;;6.66;63.96;101183.94;5135449;27;20069;-85
2021/04/17 00:32:06;;;;;;;10.68;7.00;;;;;;;6.52;63.54;101170.19;5134177;27;20074;-85
2021/04/17 00:34:33;;;;;;;12.45;7.18;;;;;;;6.46;64.43;101178.16;5130537;27;20043;-84
2021/04/17 00:37:00;;;;;;;12.05;7.10;;;;;;;6.45;65.01;101168.56;5144502;27;20035;-84
2021/04/17 00:39:26;;;;;;;10.45;7.10;;;;;;;6.47;65.48;101167.63;5115739;28;20039;-84
2021/04/17 00:41:53;;;;;;;10.23;6.60;;;;;;;6.33;64.95;101146.81;5129997;28;20040;-83
2021/04/17 00:44:19;;;;;;;8.73;6.40;;;;;;;6.38;64.96;101174.81;5124258;27;20196;-84
2021/04/17 00:46:45;;;;;;;11.07;7.30;;;;;;;6.32;65.42;101165.25;5122337;27;20094;-84
2021/04/17 00:49:12;;;;;;;12.50;7.28;;;;;;;6.23;65.65;101162.78;5104132;27;20126;-85
2021/04/17 00:51:39;;;;;;;9.55;6.78;;;;;;;6.17;66.05;101162.88;5113428;27;20051;-84
2021/04/17 00:54:08;;;;;;;10.32;6.63;;;;;;;6.16;66.41;101154.13;5112530;27;20055;-84
2021/04/17 00:56:34;;;;;;;9.23;6.90;;;;;;;6.25;66.16;101156.63;5118208;27;20126;-84
2021/04/17 00:59:00;;;;;;;11.07;7.20;;;;;;;6.29;65.77;101162.72;5096366;28;20064;-83
2021/04/17 01:01:28;;;;;;;10.45;6.75;;;;;;;6.36;65.77;101166.09;5115638;27;20134;-84
2021/04/17 01:04:14;;;;;;;12.45;7.05;;;;;;;6.37;65.64;101158.16;5118694;27;20055;-84
2021/04/17 01:07:02;;;;;;;10.45;6.97;;;;;;;6.42;65.45;101158.09;5122511;27;20126;-84
2021/04/17 01:09:28;;;;;;;11.18;7.00;;;;;;;6.43;65.38;101165.97;5110227;28;20076;-84
2021/04/17 01:12:02;;;;;;;11.60;7.03;;;;;;;6.37;65.75;101162.56;5105555;28;20073;-83
2021/04/17 01:14:29;;;;;;;9.35;6.88;;;;;;;6.32;65.45;101170.50;5130709;27;20042;-83
2021/04/17 01:16:57;;;;;;;10.05;6.95;;;;;;;6.24;66.40;101173.28;5114363;28;20071;-84
2021/04/17 01:19:46;;;;;;;12.52;7.35;;;;;;;6.21;66.86;101164.59;5130195;27;20478;-84
2021/04/17 01:22:16;;;;;;;13.32;7.10;;;;;;;6.21;67.17;101175.09;5107475;27;20043;-83
2021/04/17 01:25:07;;;;;;;8.97;4.93;;;;;;;6.22;66.39;101168.94;5138146;27;20106;-83
2021/04/17 01:27:36;;;;;;;10.95;6.88;;;;;;;6.25;66.06;101161.00;5121944;28;20043;-84
2021/04/17 01:30:08;;;;;;;9.82;6.80;;;;;;;6.25;66.33;101164.50;5121714;28;20072;-82
2021/04/17 01:32:35;;;;;;;10.07;6.68;;;;;;;6.22;66.27;101164.56;5134769;27;20161;-82
2021/04/17 01:35:05;;;;;;;9.00;6.13;;;;;;;6.20;66.30;101158.44;5126077;27;20069;-83
2021/04/17 01:37:53;;;;;;;11.48;6.03;;;;;;;6.15;66.18;101168.16;5121859;27;20134;-82
2021/04/17 01:40:22;;;;;;;8.98;6.40;;;;;;;6.05;66.55;101161.34;5111017;27;20071;-85
2021/04/17 01:42:50;;;;;;;9.27;6.32;;;;;;;6.01;67.06;101164.03;5113677;28;20047;-84
2021/04/17 01:45:20;;;;;;;9.93;6.55;;;;;;;5.98;66.65;101162.34;5112033;27;20085;-84
2021/04/17 01:47:51;;;;;;;10.73;6.82;;;;;;;5.94;66.76;101165.91;5118084;27;20567;-83
2021/04/17 01:50:19;;;;;;;11.38;6.45;;;;;;;5.94;66.90;101161.53;5122910;27;20039;-83
2021/04/17 01:52:47;;;;;;;7.68;6.13;;;;;;;5.91;66.53;101156.31;5121391;28;20051;-83
2021/04/17 01:55:16;;;;;;;7.57;6.15;;;;;;;5.91;66.81;101150.19;5120939;27;20066;-83
2021/04/17 01:57:47;;;;;;;11.75;6.80;;;;;;;5.94;66.80;101151.00;5117431;27;20098;-83
2021/04/17 02:00:13;;;;;;;11.07;6.88;;;;;;;5.96;66.98;101143.09;5115966;27;20134;-83
2021/04/17 02:02:40;;;;;;;9.38;6.22;;;;;;;6.01;66.88;101151.75;5117047;27;20039;-83
2021/04/17 02:05:07;;;;;;;8.02;6.40;;;;;;;6.03;66.51;101141.22;5118550;28;20052;-83
2021/04/17 02:07:33;;;;;;;10.90;6.63;;;;;;;6.11;66.86;101150.72;5116723;28;20039;-84
2021/04/17 02:09:59;;;;;;;8.73;6.30;;;;;;;6.16;66.33;101145.38;5116480;28;20063;-83
2021/04/17 02:12:25;;;;;;;14.13;6.45;;;;;;;6.21;65.88;101138.28;5121176;27;20883;-85
2021/04/17 02:14:59;;;;;;;8.82;6.22;;;;;;;6.22;66.02;101143.53;5118091;28;20040;-85
2021/04/17 02:17:54;;;;;;;7.90;6.38;;;;;;;6.27;66.06;101144.31;5123500;28;20062;-85
2021/04/17 02:20:48;;;;;;;11.32;7.30;;;;;;;6.24;65.69;101144.38;5126959;28;20059;-85
2021/04/17 02:23:20;;;;;;;9.35;6.97;;;;;;;6.25;65.98;101145.22;5138022;27;20046;-85
2021/04/17 02:25:46;;;;;;;9.77;6.90;;;;;;;6.20;66.38;101137.41;5133011;27;20035;-85
2021/04/17 02:28:13;;;;;;;10.27;6.97;;;;;;;6.23;66.51;101147.88;5105410;28;20039;-85
2021/04/17 02:30:40;;;;;;;9.75;6.72;;;;;;;6.22;66.45;101145.28;5129212;28;20051;-85
2021/04/17 02:33:06;;;;;;;9.40;7.25;;;;;;;6.21;67.11;101146.16;5116992;28;20073;-84
2021/04/17 02:35:35;;;;;;;11.88;7.30;;;;;;;6.16;66.87;101140.97;5131813;27;20048;-85
2021/04/17 02:38:01;;;;;;;8.63;6.60;;;;;;;6.14;66.42;101136.66;5115829;28;20035;-85
2021/04/17 02:40:28;;;;;;;8.43;6.60;;;;;;;6.11;66.62;101140.22;5138448;27;20088;-84
2021/04/17 02:42:54;;;;;;;9.32;7.13;;;;;;;6.08;67.03;101135.00;5122655;27;20047;-86
2021/04/17 02:45:22;;;;;;;11.50;6.93;;;;;;;6.10;66.32;101129.72;5134047;27;20035;-84
2021/04/17 02:47:51;;;;;;;10.10;7.28;;;;;;;6.07;66.77;101129.75;5134427;27;20035;-84
2021/04/17 02:50:19;;;;;;;9.27;7.43;;;;;;;6.06;66.84;101130.66;5137183;27;20035;-85
2021/04/17 02:52:47;;;;;;;9.13;6.63;;;;;;;6.03;66.32;101123.69;5139931;27;20036;-84
2021/04/17 02:55:14;;;;;;;10.27;6.93;;;;;;;6.02;66.38;101124.56;5121651;27;20062;-84
2021/04/17 02:57:40;;;;;;;9.95;7.05;;;;;;;6.04;66.69;101129.81;5140005;27;20081;-85
2021/04/17 03:00:10;;;;;;;10.57;7.60;;;;;;;6.01;66.81;101133.34;5152110;27;20103;-85
2021/04/17 03:02:36;;;;;;;10.82;7.28;;;;;;;6.00;66.99;101139.50;5131312;28;20050;-84
2021/04/17 03:05:04;;;;;;;8.85;7.05;;;;;;;5.93;66.94;101130.00;5135796;27;20466;-84
2021/04/17 03:07:32;;;;;;;9.75;7.18;;;;;;;5.96;65.91;101132.59;5127757;27;20050;-84
2021/04/17 03:09:58;;;;;;;9.57;7.05;;;;;;;5.90;66.28;101135.28;5108912;28;20065;-85
2021/04/17 03:12:25;;;;;;;13.50;7.40;;;;;;;5.87;66.81;101128.28;5126158;27;20154;-84
2021/04/17 03:14:51;;;;;;;10.63;6.80;;;;;;;5.85;66.15;101130.06;5105434;28;20123;-84
2021/04/17 03:17:19;;;;;;;10.65;7.10;;;;;;;5.82;67.00;101126.66;5124053;27;20063;-84
2021/04/17 03:19:46;;;;;;;10.07;6.78;;;;;;;5.79;67.27;101127.56;5128507;28;20054;-84
2021/04/17 03:22:20;;;;;;;13.25;7.20;;;;;;;5.71;67.04;101110.16;5131858;27;20058;-85
2021/04/17 03:24:53;;;;;;;9.73;6.63;;;;;;;5.73;67.09;101114.50;5108622;27;20047;-85
2021/04/17 03:27:28;;;;;;;8.90;7.28;;;;;;;5.71;67.47;101104.91;5128515;27;20035;-84
2021/04/17 03:29:54;;;;;;;11.80;7.18;;;;;;;5.71;67.61;101110.16;5123112;27;20073;-85
2021/04/17 03:32:20;;;;;;;9.77;7.18;;;;;;;5.63;67.51;101102.41;5117471;27;20052;-85
2021/04/17 03:34:49;;;;;;;10.75;6.85;;;;;;;5.65;67.58;101105.88;5124779;27;20039;-84
2021/04/17 03:37:16;;;;;;;10.20;6.90;;;;;;;5.63;67.38;101110.28;5134363;27;20054;-84
2021/04/17 03:39:45;;;;;;;9.45;6.70;;;;;;;5.61;67.59;101109.44;5137737;27;20102;-84
2021/04/17 03:42:11;;;;;;;10.60;6.32;;;;;;;5.54;67.13;101113.91;5084964;28;20111;-84
2021/04/17 03:44:37;;;;;;;8.65;6.15;;;;;;;5.50;66.72;101108.75;5134178;27;20051;-81
2021/04/17 03:47:05;;;;;;;8.02;6.15;;;;;;;5.47;66.76;101111.41;5141660;27;20087;-82
2021/04/17 03:49:32;;;;;;;8.45;5.40;;;;;;;5.41;66.81;101116.75;5142236;27;20032;-84
2021/04/17 03:51:59;;;;;;;7.88;5.88;;;;;;;5.33;66.22;101108.13;5139859;27;20051;-83
2021/04/17 03:54:25;;;;;;;9.15;6.20;;;;;;;5.27;66.33;101095.94;5129305;27;20039;-84
2021/04/17 03:56:53;;;;;;;7.70;6.03;;;;;;;5.28;66.62;101118.69;5125132;27;20032;-84
2021/04/17 03:59:19;;;;;;;7.80;5.65;;;;;;;5.29;66.39;101116.03;5126442;27;20143;-83
2021/04/17 04:01:45;;;;;;;9.40;6.03;;;;;;;5.22;66.21;101114.38;5113307;27;20134;-83
2021/04/17 04:04:12;;;;;;;10.10;6.32;;;;;;;5.25;66.76;101129.22;5102905;27;20044;-83
2021/04/17 04:06:40;;;;;;;7.70;5.38;;;;;;;5.19;66.65;101126.69;5108209;28;20068;-83
2021/04/17 04:09:06;;;;;;;8.95;6.00;;;;;;;5.16;67.34;101130.22;5122174;27;20153;-83
2021/04/17 04:11:33;;;;;;;8.98;6.40;;;;;;;5.11;67.32;101125.91;5116836;27;20093;-82
2021/04/17 04:14:02;;;;;;;8.85;5.90;;;;;;;5.06;67.47;101128.59;5105628;28;20115;-85
2021/04/17 04:16:29;;;;;;;7.68;5.47;;;;;;;5.01;67.07;101125.16;5110991;28;20051;-84
2021/04/17 04:18:59;;;;;;;7.03;5.43;;;;;;;5.03;67.04;101127.78;5124287;27;20105;-83
2021/04/17 04:21:26;;;;;;;8.77;5.65;;;;;;;4.99;66.92;101132.19;5119390;27;20050;-83
2021/04/17 04:23:54;;;;;;;9.70;5.78;;;;;;;4.96;67.03;101147.97;5109314;28;20043;-83
2021/04/17 04:26:22;;;;;;;9.38;5.95;;;;;;;4.90;66.91;101134.91;5127162;28;20072;-84
2021/04/17 04:28:55;;;;;;;8.32;5.40;;;;;;;4.85;68.15;101134.13;5099995;28;20136;-84
2021/04/17 04:31:21;;;;;;;7.78;5.57;;;;;;;4.87;67.48;101134.97;5115683;28;20074;-83
2021/04/17 04:33:48;;;;;;;10.48;5.63;;;;;;;4.87;66.82;101134.97;5129253;27;20050;-84
2021/04/17 04:36:14;;;;;;;11.15;5.53;;;;;;;4.79;67.02;101134.19;5116216;27;20039;-85
2021/04/17 04:38:42;;;;;;;8.50;5.03;;;;;;;4.74;67.05;101135.97;5120109;27;20127;-85
2021/04/17 04:41:10;;;;;;;6.70;4.90;;;;;;;4.76;67.16;101142.06;5102439;28;20043;-84
2021/04/17 04:43:38;;;;;;;8.63;4.85;;;;;;;4.75;66.65;101142.97;5100580;28;20409;-84
2021/04/17 04:46:08;;;;;;;7.10;5.00;;;;;;;4.73;66.23;101152.59;5114421;27;20055;-83
2021/04/17 04:48:34;;;;;;;7.35;4.25;;;;;;;4.70;65.90;101145.66;5139193;27;20079;-84
2021/04/17 04:51:03;;;;;;;6.68;4.60;;;;;;;4.75;66.01;101150.84;5128929;27;20044;-84
2021/04/17 04:53:30;;;;;;;8.75;4.30;;;;;;;4.77;65.83;101147.31;5126328;27;20044;-84
2021/04/17 04:55:58;;;;;;;9.32;5.45;;;;;;;4.82;66.00;101144.66;5126628;27;20055;-84
2021/04/17 04:58:26;;;;;;;6.88;3.95;;;;;;;4.82;65.31;101139.41;5111479;28;20095;-83
2021/04/17 05:00:52;;;;;;;7.00;3.95;;;;;;;4.90;64.99;101140.16;5132345;27;20066;-83
2021/04/17 05:03:20;;;;;;;5.22;3.85;;;;;;;4.91;64.16;101131.41;5115450;28;20050;-84
2021/04/17 05:05:55;;;;;;;6.45;4.38;;;;;;;4.96;64.43;101133.97;5124705;28;20059;-86
2021/04/17 05:08:23;;;;;;;8.35;4.07;;;;;;;4.95;63.68;101127.84;5130869;27;20031;-84
2021/04/17 05:10:49;;;;;;;6.88;4.40;;;;;;;5.03;63.70;101136.53;5135798;27;20068;-83
2021/04/17 05:13:19;;;;;;;5.90;3.97;;;;;;;5.04;63.79;101132.09;5132787;27;20494;-84
2021/04/17 05:15:45;;;;;;;5.80;4.03;;;;;;;5.10;63.64;101140.78;5127588;27;20051;-83
2021/04/17 05:18:19;;;;;;;6.53;3.70;;;;;;;5.17;63.40;101141.59;5110703;28;20048;-83
2021/04/17 05:20:45;;;;;;;7.05;3.92;;;;;;;5.25;63.72;101151.09;5114677;27;20044;-83
2021/04/17 05:23:11;;;;;;;6.13;3.38;;;;;;;5.31;62.15;101139.66;5121567;27;20051;-83
2021/04/17 05:25:37;;;;;;;6.90;3.65;;;;;;;5.35;62.94;101148.38;5117057;27;20119;-83
2021/04/17 05:28:04;;;;;;;7.13;4.00;;;;;;;5.39;62.53;101148.28;5111029;27;20059;-85
2021/04/17 05:30:30;;;;;;;7.32;4.03;;;;;;;5.38;62.35;101151.78;5112151;27;20043;-82
2021/04/17 05:32:57;;;;;;;6.50;3.92;;;;;;;5.40;62.24;101150.00;5081982;28;20048;-82
2021/04/17 05:35:25;;;;;;;7.00;3.50;;;;;;;5.37;61.92;101147.44;5116786;27;20043;-83
2021/04/17 05:37:52;;;;;;;6.18;3.85;;;;;;;5.45;61.36;101155.22;5116622;27;20056;-82
2021/04/17 05:40:20;;;;;;;8.20;3.80;;;;;;;5.48;61.27;101149.94;5098931;28;20093;-83
2021/04/17 05:42:48;;;;;;;6.85;3.60;;;;;;;5.51;61.64;101149.88;5132261;27;20056;-85
2021/04/17 05:45:18;;;;;;;5.68;3.75;;;;;;;5.63;61.16;101154.97;5129124;27;20027;-83
2021/04/17 05:47:47;;;;;;;6.45;4.13;;;;;;;5.69;60.46;101154.84;5134652;27;20028;-83
2021/04/17 05:50:14;;;;;;;4.68;3.30;;;;;;;5.74;60.58;101150.41;5125191;27;20032;-83
2021/04/17 05:52:40;;;;;;;5.97;3.63;;;;;;;5.93;60.17;101159.78;5117983;27;20071;-84
2021/04/17 05:55:07;;;;;;;7.63;3.45;;;;;;;6.08;59.10;101163.06;5149465;27;20039;-83
2021/04/17 05:57:33;;;;;;;9.05;3.63;;;;;;;6.20;58.38;101149.69;5124654;27;20036;-84
2021/04/17 06:00:00;;;;;;;5.25;3.35;;;;;;;6.34;57.80;101153.81;5136215;27;20034;-83
2021/04/17 06:02:26;;;;;;;6.63;3.10;;;;;;;6.49;57.19;101150.03;5131571;27;20087;-83
2021/04/17 06:04:53;;;;;;;5.53;3.20;;;;;;;6.68;56.63;101153.22;5124316;27;20673;-84
2021/04/17 06:07:22;;;;;;;5.50;3.35;;;;;;;6.80;55.88;101154.72;5126982;27;20047;-84
2021/04/17 06:09:50;;;;;;;5.20;2.95;;;;;;;6.96;54.74;101156.16;5119999;27;20062;-84
2021/04/17 06:12:17;;;;;;;8.93;3.28;;;;;;;7.15;53.82;101152.25;5125674;27;20035;-84
2021/04/17 06:14:44;;;;;;;4.72;2.97;;;;;;;7.24;53.23;101152.06;5114975;27;20047;-84
2021/04/17 06:17:13;;;;;;;6.28;3.10;;;;;;;7.28;53.40;101158.13;5118831;28;20044;-85
2021/04/17 06:19:42;;;;;;;7.70;3.13;;;;;;;7.38;52.87;101159.69;5114761;27;20043;-85
2021/04/17 06:22:08;;;;;;;4.75;2.95;;;;;;;7.44;52.22;101167.44;5115949;27;20481;-85
2021/04/17 06:24:35;;;;;;;4.10;2.90;;;;;;;7.40;52.39;101153.47;5119170;28;20047;-83
2021/04/17 06:27:03;;;;;;;3.88;2.80;;;;;;;7.54;52.12;101155.81;5101351;28;20125;-83
2021/04/17 06:29:29;;;;;;;5.78;3.17;;;;;;;7.59;52.28;101160.97;5093984;28;20066;-82
2021/04/17 06:31:56;;;;;;;4.47;3.17;;;;;;;7.80;51.65;101156.97;5098423;28;20043;-83
2021/04/17 06:34:23;;;;;;;4.95;3.00;;;;;;;8.07;50.44;101156.31;5117794;28;20056;-83
2021/04/17 06:36:49;;;;;;;5.50;3.00;;;;;;;8.39;50.04;101158.16;5119050;28;20060;-84
2021/04/17 06:39:17;;;;;;;7.78;3.33;;;;;;;9.66;47.14;101152.78;5099324;28;20070;-84
2021/04/17 06:41:45;;;;;;;4.50;2.80;;;;;;;11.27;42.96;101143.69;5117595;28;20047;-84
2021/04/17 06:44:18;;;;;;;4.25;2.63;;;;;;;13.13;38.92;101150.94;5120620;28;20534;-84
2021/04/17 06:46:44;;;;;;;6.35;3.05;;;;;;;14.06;36.03;101146.53;5099151;28;20039;-84
2021/04/17 06:49:12;;;;;;;5.28;2.97;;;;;;;14.60;34.73;101155.41;5118508;28;20043;-84
2021/04/17 06:51:44;;;;;;;5.53;2.85;;;;;;;15.28;33.96;101150.84;5128610;28;20123;-84
2021/04/17 06:54:13;;;;;;;4.88;2.53;;;;;;;16.24;31.33;101150.78;5129618;28;20066;-82
2021/04/17 06:56:41;;;;;;;4.97;2.95;;;;;;;14.77;32.79;101157.19;5134974;28;20055;-84
2021/04/17 06:59:09;;;;;;;4.55;3.05;;;;;;;12.97;36.55;101155.22;5132033;27;20066;-84
2021/04/17 07:01:39;;;;;;;4.88;2.88;;;;;;;11.78;39.07;101159.44;5116637;27;20047;-85
2021/04/17 07:04:06;;;;;;;7.63;3.47;;;;;;;11.23;41.10;101153.56;5131318;27;20082;-84
2021/04/17 07:06:35;;;;;;;5.45;3.00;;;;;;;11.00;41.82;101164.16;5134188;27;20073;-84
2021/04/17 07:09:07;;;;;;;7.53;3.45;;;;;;;10.94;41.73;101153.78;5122692;28;20043;-85
2021/04/17 07:11:34;;;;;;;5.85;3.20;;;;;;;10.88;42.61;101150.41;5130876;28;20059;-82
2021/04/17 07:14:09;;;;;;;6.25;3.08;;;;;;;11.07;42.40;101160.34;5136597;27;20042;-83
2021/04/17 07:17:06;;;;;;;6.85;3.30;;;;;;;11.14;42.68;101159.22;5133116;27;20039;-84
2021/04/17 07:20:01;;;;;;;6.03;3.65;;;;;;;11.58;41.01;101154.84;5105092;28;20058;-83
2021/04/17 07:22:39;;;;;;;6.55;3.30;;;;;;;11.52;40.77;101158.59;5138290;27;20036;-83
2021/04/17 07:25:05;;;;;;;7.32;3.20;;;;;;;11.52;41.60;101155.94;5134622;27;20034;-83
2021/04/17 07:27:35;;;;;;;4.68;2.90;;;;;;;11.69;40.98;101154.44;5128167;28;20059;-83
2021/04/17 07:30:14;;;;;;;5.90;3.10;;;;;;;11.55;40.34;101162.94;5134820;27;20079;-85
2021/04/17 07:32:46;;;;;;;5.00;3.28;;;;;;;11.49;40.69;101155.22;5134875;27;20036;-82
2021/04/17 07:35:18;;;;;;;5.45;3.00;;;;;;;11.15;41.82;101153.00;5128203;28;20069;-82
2021/04/17 07:38:07;;;;;;;6.43;3.58;;;;;;;10.80;42.50;101156.91;5135546;27;20051;-82
2021/04/17 07:40:35;;;;;;;6.60;3.22;;;;;;;10.38;44.22;101148.69;5138316;27;20097;-84
2021/04/17 07:43:01;;;;;;;7.55;3.17;;;;;;;10.32;43.84;101143.59;5098405;28;20051;-83
2021/04/17 07:45:34;;;;;;;7.38;3.40;;;;;;;10.23;43.90;101151.88;5115291;28;20507;-83
2021/04/17 07:48:29;;;;;;;7.47;3.33;;;;;;;10.25;44.11;101163.25;5117500;27;20665;-83
2021/04/17 07:50:57;;;;;;;7.38;3.53;;;;;;;10.15;43.78;101152.06;5101545;28;20078;-82
2021/04/17 07:53:26;;;;;;;4.78;3.13;;;;;;;10.24;44.49;101150.91;5121343;28;20048;-82
2021/04/17 07:55:58;;;;;;;6.65;3.40;;;;;;;10.42;43.62;101153.81;5118124;27;20031;-84
2021/04/17 07:58:46;;;;;;;6.78;3.35;;;;;;;10.70;43.42;101151.09;5134447;27;20059;-84
2021/04/17 08:01:15;;;;;;;8.30;3.75;;;;;;;10.73;42.87;101155.41;5137449;27;20059;-84
2021/04/17 08:03:43;;;;;;;7.35;3.53;;;;;;;10.49;42.65;101160.66;5131914;27;20057;-85
2021/04/17 08:06:11;;;;;;;7.50;3.83;;;;;;;10.30;43.80;101158.66;5124195;27;20138;-82
2021/04/17 08:08:39;;;;;;;5.95;3.13;;;;;;;11.07;42.97;101150.59;5128757;27;20047;-83
2021/04/17 08:11:07;;;;;;;8.60;3.53;;;;;;;11.91;40.28;101134.97;5123829;27;20039;-84
2021/04/17 08:13:40;;;;;;;7.85;3.88;;;;;;;12.98;37.93;101144.53;5124432;27;20090;-84
2021/04/17 08:16:18;;;;;;;5.07;3.05;;;;;;;13.69;37.18;101143.00;5113407;28;20060;-83
2021/04/17 08:18:47;;;;;;;5.40;3.40;;;;;;;14.50;34.74;101135.47;5122609;27;20039;-85
2021/04/17 08:21:17;;;;;;;8.98;3.55;;;;;;;15.03;34.97;101138.84;5119340;28;20095;-84
2021/04/17 08:23:47;;;;;;;6.07;3.20;;;;;;;15.42;32.87;101146.47;5120857;27;20073;-84
2021/04/17 08:26:13;;;;;;;7.40;3.30;;;;;;;15.53;32.86;101137.91;5120217;28;20048;-85
2021/04/17 08:28:44;;;;;;;6.97;3.47;;;;;;;15.42;32.58;101135.81;5124314;27;20051;-84
2021/04/17 08:31:20;;;;;;;5.30;3.42;;;;;;;14.57;34.48;101135.09;5119947;27;20039;-84
2021/04/17 08:34:08;;;;;;;6.07;3.20;;;;;;;13.50;36.82;101134.19;5099691;28;20070;-83
2021/04/17 08:36:40;;;;;;;6.32;3.05;;;;;;;12.90;37.52;101127.19;5125773;27;20075;-86
2021/04/17 08:39:29;;;;;;;6.00;2.95;;;;;;;12.44;38.27;101136.31;5134750;27;20074;-84
2021/04/17 08:41:55;;;;;;;5.53;3.53;;;;;;;12.11;39.15;101138.63;5112189;27;20055;-84
2021/04/17 08:44:26;;;;;;;7.43;3.00;;;;;;;11.72;39.63;101143.69;5136212;27;20058;-85
2021/04/17 08:46:56;;;;;;;9.13;3.28;;;;;;;11.33;41.79;101141.69;5134925;27;20055;-87
2021/04/17 08:49:26;;;;;;;4.00;2.83;;;;;;;11.16;41.49;101144.13;5130306;27;20070;-82
2021/04/17 08:52:19;;;;;;;7.03;3.28;;;;;;;11.11;41.76;101146.06;5124659;27;20086;-83
2021/04/17 08:54:53;;;;;;;4.85;3.03;;;;;;;11.15;41.81;101137.09;5127714;27;20095;-82
2021/04/17 08:57:20;;;;;;;7.22;3.05;;;;;;;10.88;41.95;101145.09;5130463;27;20303;-83
2021/04/17 08:59:54;;;;;;;5.37;3.33;;;;;;;10.58;42.66;101140.91;5105798;28;20064;-83
2021/04/17 09:02:23;;;;;;;5.35;3.30;;;;;;;10.39;43.34;101135.38;5110818;28;20048;-84
2021/04/17 09:05:15;;;;;;;7.82;3.45;;;;;;;10.49;43.39;101143.88;5121891;27;20467;-83
2021/04/17 09:07:45;;;;;;;6.97;3.55;;;;;;;10.61;43.50;101145.25;5120047;27;20060;-83
2021/04/17 09:10:32;;;;;;;10.23;3.53;;;;;;;10.75;43.87;101141.19;5121424;27;20043;-83
2021/04/17 09:13:16;;;;;;;6.55;3.20;;;;;;;10.87;41.92;101138.06;5116722;27;20047;-83
2021/04/17 09:16:11;;;;;;;6.45;3.35;;;;;;;10.84;40.78;101137.34;5114463;27;20123;-84
2021/04/17 09:18:41;;;;;;;6.07;2.80;;;;;;;10.45;40.60;101121.94;5117761;27;20173;-83
2021/04/17 09:21:25;;;;;;;4.55;2.70;;;;;;;10.42;41.41;101129.13;5111726;27;20518;-83
2021/04/17 09:23:58;;;;;;;6.03;2.97;;;;;;;10.51;40.67;101118.22;5108766;27;20040;-85
2021/04/17 09:26:36;;;;;;;6.57;2.45;;;;;;;10.84;40.18;101138.22;5115011;28;20055;-85
2021/04/17 09:29:13;;;;;;;3.78;2.20;;;;;;;10.81;39.58;101129.50;5113674;27;20055;-84
2021/04/17 09:31:40;;;;;;;7.40;3.00;;;;;;;10.55;40.37;101127.75;5111798;27;20587;-84
2021/04/17 09:34:20;;;;;;;6.22;2.47;;;;;;;10.35;40.74;101123.19;5122350;27;20055;-83
2021/04/17 09:36:51;;;;;;;7.65;2.60;;;;;;;10.46;40.34;101120.16;5116802;28;20044;-84
2021/04/17 09:39:31;;;;;;;5.57;2.65;;;;;;;10.72;40.28;101120.09;5110660;27;20044;-84
2021/04/17 09:42:03;;;;;;;4.30;3.03;;;;;;;11.15;40.71;101115.88;5094712;27;20463;-83
2021/04/17 09:44:49;;;;;;;;;;;;;;;11.44;38.29;101107.66;5112131;28;20442;-84
2021/04/17 09:47:18;;;;;;;4.13;2.30;;;;;;;11.68;37.56;101104.94;5113516;28;19963;-83
2021/04/17 09:49:53;;;;;;;3.80;2.05;;;;;;;11.92;36.30;101104.00;5098894;27;20736;-83
2021/04/17 09:52:25;;;;;;;4.40;2.20;;;;;;;11.87;36.95;101095.34;5112436;27;20101;-82
2021/04/17 09:55:04;;;;;;;3.70;2.13;;;;;;;12.01;36.49;101095.63;5114411;27;20125;-83
2021/04/17 09:57:32;;;;;;;6.38;2.03;;;;;;;12.09;35.65;101092.69;5112367;28;20043;-83
2021/04/17 10:00:00;;;;;;;4.30;2.13;;;;;;;12.11;35.20;101093.47;5092761;28;20043;-83
2021/04/17 10:02:46;;;;;;;4.10;2.13;;;;;;;12.28;34.97;101097.13;5111419;27;20040;-84
2021/04/17 10:05:31;;;;;;;4.07;1.95;;;;;;;12.24;33.76;101084.94;5126933;27;20069;-83
2021/04/17 10:07:58;;;;;;;2.60;1.40;;;;;;;12.16;34.61;101079.06;5131860;27;20031;-84
2021/04/17 10:10:45;;;;;;;4.03;1.65;;;;;;;12.00;35.04;101074.47;5124182;27;20077;-84
2021/04/17 10:13:12;;;;;;;3.83;1.73;;;;;;;11.90;34.29;101080.16;5124683;28;20075;-83
2021/04/17 10:15:47;;;;;;;3.65;1.70;;;;;;;11.91;34.47;101068.63;5124522;28;20063;-84
2021/04/17 10:18:15;;;;;;;3.90;1.80;;;;;;;12.12;34.61;101082.78;5123788;28;20051;-83
2021/04/17 10:20:57;;;;;;;6.40;2.00;;;;;;;12.29;33.40;101080.25;5111632;27;20070;-84
2021/04/17 10:23:23;;;;;;;2.72;1.77;;;;;;;12.29;34.35;101082.91;5109867;28;20098;-83
2021/04/17 10:25:49;;;;;;;3.60;2.00;;;;;;;12.47;33.94;101061.78;5114740;28;20092;-85
2021/04/17 10:28:24;;;;;;;5.80;1.95;;;;;;;12.57;33.73;101071.09;5105090;28;20048;-85
2021/04/17 10:31:00;;;;;;;6.55;2.13;;;;;;;12.83;33.90;101062.81;5108507;28;20061;-85
2021/04/17 10:33:29;;;;;;;6.93;2.00;;;;;;;12.99;33.02;101071.81;5118370;28;20093;-85
2021/04/17 10:35:59;;;;;;;3.20;1.90;;;;;;;13.10;33.05;101059.81;5110604;28;20059;-85
2021/04/17 10:38:36;;;;;;;3.15;2.05;;;;;;;13.11;33.64;101064.19;5114051;28;20142;-84
2021/04/17 10:41:04;;;;;;;4.45;2.20;;;;;;;13.06;33.69;101058.25;5094235;28;20035;-84
2021/04/17 10:43:31;;;;;;;5.97;2.33;;;;;;;12.89;33.85;101045.72;5135180;28;20154;-83
2021/04/17 10:46:00;;;;;;;7.25;2.20;;;;;;;12.39;34.51;101058.63;5127533;28;20028;-84
2021/04/17 10:48:28;;;;;;;5.27;2.07;;;;;;;12.20;34.93;101067.41;5126234;28;20052;-84
2021/04/17 10:51:02;;;;;;;7.95;2.58;;;;;;;12.32;35.33;101057.16;5123630;28;20131;-84
2021/04/17 10:53:35;;;;;;;3.35;1.70;;;;;;;12.68;34.19;101060.84;5117872;28;20051;-84
2021/04/17 10:56:16;;;;;;;6.72;2.10;;;;;;;12.93;33.70;101056.13;5122725;28;20074;-84
2021/04/17 10:58:48;;;;;;;5.50;2.10;;;;;;;12.97;33.38;101047.09;5124564;27;20043;-83
2021/04/17 11:01:23;;;;;;;6.97;2.03;;;;;;;12.94;33.27;101054.34;5108584;27;20063;-84
2021/04/17 11:03:59;;;;;;;2.97;1.70;;;;;;;13.11;33.74;101058.88;5126460;27;20157;-84
2021/04/17 11:06:32;;;;;;;4.97;1.92;;;;;;;13.10;33.92;101054.47;5100505;28;20107;-84
2021/04/17 11:09:24;;;;;;;3.40;1.70;;;;;;;13.28;32.32;101043.00;5096543;28;20119;-83
2021/04/17 11:11:58;;;;;;;3.97;1.92;;;;;;;13.44;32.49;101037.81;5119057;28;20058;-84
2021/04/17 11:14:26;;;;;;;3.70;1.60;;;;;;;13.08;32.71;101035.94;5116471;28;20060;-84
2021/04/17 11:16:55;;;;;;;3.72;1.77;;;;;;;13.17;33.57;101045.34;5140729;27;20110;-84
2021/04/17 11:19:37;;;;;;;4.75;2.25;;;;;;;13.25;33.72;101043.16;5126611;27;20059;-83
2021/04/17 11:22:08;;;;;;;7.15;1.98;;;;;;;13.38;33.27;101038.13;5109672;28;20048;-85
2021/04/17 11:24:36;;;;;;;3.85;1.90;;;;;;;12.87;34.14;101035.16;5140210;27;20050;-83
2021/04/17 11:27:06;;;;;;;;;;;;;;;12.70;34.85;101023.59;5130516;27;20039;-83
2021/04/17 11:29:32;;;;;;;5.03;2.33;;;;;;;12.74;35.36;101031.34;5133479;28;19930;-84
2021/04/17 11:32:02;;;;;;;5.75;2.15;;;;;;;12.72;35.19;101038.53;5136637;27;20035;-84
2021/04/17 11:34:30;;;;;;;5.57;2.20;;;;;;;12.68;35.17;101028.97;5127942;28;20067;-85
2021/04/17 11:36:57;;;;;;;5.70;2.00;;;;;;;12.45;35.81;101039.75;5137511;27;20051;-84
2021/04/17 11:39:23;;;;;;;4.30;2.05;;;;;;;12.45;36.34;101040.63;5137724;27;20039;-84
2021/04/17 11:41:54;;;;;;;;;;;;;;;12.57;36.02;101039.22;5121740;28;21733;-83
2021/04/17 11:44:20;;;;;;;4.47;2.08;;;;;;;12.62;35.49;101037.19;5097346;28;19930;-83
2021/04/17 11:46:46;;;;;;;7.32;2.30;;;;;;;12.71;35.60;101035.94;5123945;27;20057;-84